Time;durP1;ratioP1;P1;durP2;ratioP2;P2;SDS_P1;SDS_P2;PMS_P1;PMS_P2;Temp;Humidity;BMP_temperature;BMP_pressure;BME280_temperature;BME280_humidity;BME280_pressure;Samples;Min_cycle;Max_cycle;Signal;HPM_P1;HPM_P2
2021/09/25 00:01:00;;;;;;;8.23;7.43;;;;;;;15.54;73.08;100487.41;5009807;28;20401;-77
2021/09/25 00:03:25;;;;;;;8.07;7.40;;;;;;;15.58;72.51;100493.13;4998721;28;20929;-78
2021/09/25 00:05:50;;;;;;;10.50;7.13;;;;;;;15.59;72.04;100489.31;5009480;28;20519;-75
2021/09/25 00:08:15;;;;;;;7.37;6.67;;;;;;;15.60;71.45;100492.84;5002873;28;20422;-78
2021/09/25 00:10:41;;;;;;;8.00;6.97;;;;;;;15.57;71.03;100494.25;5007423;28;20409;-77
2021/09/25 00:13:06;;;;;;;9.40;7.10;;;;;;;15.52;70.10;100486.03;4996373;28;20486;-79
2021/09/25 00:15:32;;;;;;;9.77;7.77;;;;;;;15.45;69.70;100491.75;5013930;28;20771;-78
2021/09/25 00:17:59;;;;;;;8.35;7.63;;;;;;;15.38;69.38;100488.50;5002365;28;20422;-78
2021/09/25 00:20:26;;;;;;;8.85;6.75;;;;;;;15.33;69.45;100485.78;5007513;28;20451;-78
2021/09/25 00:22:51;;;;;;;10.32;7.03;;;;;;;15.28;69.39;100487.72;4980706;28;20394;-77
2021/09/25 00:25:17;;;;;;;13.17;6.73;;;;;;;15.22;69.00;100486.88;5008612;28;20414;-78
2021/09/25 00:27:43;;;;;;;7.63;6.65;;;;;;;15.18;69.22;100485.00;5010487;28;20422;-78
2021/09/25 00:30:10;;;;;;;9.88;6.22;;;;;;;15.15;68.98;100480.88;5014039;28;20407;-78
2021/09/25 00:32:36;;;;;;;8.38;6.72;;;;;;;15.11;69.10;100481.72;4992396;28;20410;-78
2021/09/25 00:35:02;;;;;;;6.93;6.28;;;;;;;15.08;69.45;100483.88;5012503;28;20411;-78
2021/09/25 00:37:28;;;;;;;7.50;6.70;;;;;;;15.07;69.76;100487.72;5018744;28;20458;-78
2021/09/25 00:39:53;;;;;;;7.60;6.90;;;;;;;15.06;70.39;100485.25;5001733;28;20391;-77
2021/09/25 00:42:19;;;;;;;7.87;6.73;;;;;;;15.03;70.45;100477.63;5010028;28;20887;-78
2021/09/25 00:44:44;;;;;;;8.27;7.50;;;;;;;14.93;70.85;100488.53;4998194;28;20420;-78
2021/09/25 00:47:11;;;;;;;10.65;6.63;;;;;;;14.91;70.49;100491.53;5020233;28;20419;-78
2021/09/25 00:49:37;;;;;;;8.20;7.25;;;;;;;14.94;69.82;100485.53;5004128;28;20401;-76
2021/09/25 00:52:02;;;;;;;8.73;7.15;;;;;;;14.95;69.61;100491.81;5012974;28;20412;-77
2021/09/25 00:54:28;;;;;;;7.07;6.40;;;;;;;14.93;69.85;100478.44;5004000;28;20404;-76
2021/09/25 00:56:53;;;;;;;10.57;6.80;;;;;;;14.91;69.89;100480.63;5012836;28;20955;-78
2021/09/25 00:59:19;;;;;;;8.10;6.38;;;;;;;14.89;69.55;100485.53;5013530;28;20397;-78
2021/09/25 01:01:45;;;;;;;7.20;6.50;;;;;;;14.86;69.54;100480.63;5013558;28;20423;-78
2021/09/25 01:04:10;;;;;;;7.93;7.03;;;;;;;14.83;69.96;100474.88;5011387;28;20451;-77
2021/09/25 01:06:36;;;;;;;8.63;6.47;;;;;;;14.66;70.56;100477.88;5008834;28;20404;-78
2021/09/25 01:09:03;;;;;;;7.47;6.87;;;;;;;14.51;70.93;100475.97;4995566;28;20405;-77
2021/09/25 01:11:30;;;;;;;7.75;7.00;;;;;;;14.51;71.25;100484.13;4999677;28;20422;-77
2021/09/25 01:13:55;;;;;;;8.70;6.90;;;;;;;14.55;71.43;100487.16;4993064;28;20729;-78
2021/09/25 01:16:22;;;;;;;9.50;6.87;;;;;;;14.60;71.08;100497.22;5012526;28;20404;-78
2021/09/25 01:18:48;;;;;;;7.43;6.75;;;;;;;14.58;71.20;100508.41;5012905;28;20408;-78
2021/09/25 01:21:13;;;;;;;7.43;6.75;;;;;;;14.54;70.85;100513.59;5012808;28;20413;-78
2021/09/25 01:23:39;;;;;;;8.00;7.20;;;;;;;14.53;71.07;100509.22;4997175;28;20400;-78
2021/09/25 01:26:05;;;;;;;9.52;6.55;;;;;;;14.55;71.35;100508.97;5012383;28;20397;-78
2021/09/25 01:28:33;;;;;;;7.53;6.82;;;;;;;14.57;71.33;100514.13;5012456;28;20849;-78
2021/09/25 01:30:59;;;;;;;7.00;6.30;;;;;;;14.55;71.53;100511.69;4994194;28;20392;-78
2021/09/25 01:33:31;;;;;;;9.88;7.20;;;;;;;14.56;71.45;100518.75;5012529;28;20431;-75
2021/09/25 01:35:57;;;;;;;9.02;6.90;;;;;;;14.55;71.70;100517.94;4997177;28;20388;-77
2021/09/25 01:38:22;;;;;;;7.20;6.53;;;;;;;14.55;71.53;100517.94;5003950;28;20407;-78
2021/09/25 01:40:48;;;;;;;8.20;6.87;;;;;;;14.53;71.78;100509.22;5003713;28;20420;-78
2021/09/25 01:43:13;;;;;;;8.00;6.67;;;;;;;14.58;71.88;100515.78;5009946;28;20914;-77
2021/09/25 01:45:39;;;;;;;8.05;6.70;;;;;;;14.55;71.59;100511.69;5009418;28;20780;-78
2021/09/25 01:48:04;;;;;;;7.93;7.13;;;;;;;14.53;71.42;100509.22;5005200;28;20424;-78
2021/09/25 01:50:29;;;;;;;8.27;7.00;;;;;;;14.53;71.83;100516.56;4991755;28;20784;-78
2021/09/25 01:52:55;;;;;;;7.27;6.67;;;;;;;14.49;71.82;100508.09;5007399;28;20520;-78
2021/09/25 01:55:20;;;;;;;8.70;7.13;;;;;;;14.48;71.95;100508.41;5010331;28;20726;-78
2021/09/25 01:57:45;;;;;;;7.10;6.40;;;;;;;14.45;72.13;100512.50;5004099;28;20413;-78
2021/09/25 02:00:11;;;;;;;8.70;7.00;;;;;;;14.44;72.04;100515.47;5011438;28;20791;-77
2021/09/25 02:02:37;;;;;;;7.00;6.30;;;;;;;14.47;72.00;100526.66;5012417;28;20786;-78
2021/09/25 02:05:04;;;;;;;7.78;6.85;;;;;;;14.51;71.42;100518.75;5011507;28;20413;-78
2021/09/25 02:07:30;;;;;;;7.80;7.10;;;;;;;14.52;71.77;100523.13;5016679;28;20420;-78
2021/09/25 02:09:55;;;;;;;7.87;7.10;;;;;;;14.51;71.51;100518.75;5011585;28;20408;-78
2021/09/25 02:12:20;;;;;;;8.17;7.00;;;;;;;14.49;72.28;100507.28;5012039;28;20411;-78
2021/09/25 02:14:46;;;;;;;7.47;6.63;;;;;;;14.46;72.02;100513.28;5011968;28;20401;-77
2021/09/25 02:17:12;;;;;;;8.55;6.63;;;;;;;14.44;71.89;100512.75;5013512;28;20406;-78
2021/09/25 02:19:37;;;;;;;7.87;7.00;;;;;;;14.43;71.79;100511.09;5012050;28;20935;-78
2021/09/25 02:22:03;;;;;;;7.50;6.80;;;;;;;14.40;71.74;100498.81;4994299;28;20385;-78
2021/09/25 02:24:28;;;;;;;7.63;6.90;;;;;;;14.40;72.49;100506.19;5011875;28;20399;-78
2021/09/25 02:26:53;;;;;;;7.70;6.80;;;;;;;14.36;71.88;100499.63;5002216;28;20455;-77
2021/09/25 02:29:19;;;;;;;10.70;7.40;;;;;;;14.36;71.82;100496.88;5011966;28;20393;-78
2021/09/25 02:31:44;;;;;;;8.13;7.38;;;;;;;14.33;71.97;100494.69;5011599;28;20440;-78
2021/09/25 02:34:09;;;;;;;8.83;7.03;;;;;;;14.31;71.16;100494.13;5011631;28;20714;-78
2021/09/25 02:36:35;;;;;;;7.70;6.90;;;;;;;14.29;70.40;100493.59;4994734;28;20963;-78
2021/09/25 02:39:01;;;;;;;7.23;6.60;;;;;;;14.24;70.21;100493.56;5012020;28;20476;-78
2021/09/25 02:41:27;;;;;;;7.07;6.47;;;;;;;14.21;70.27;100484.03;4985032;28;20461;-78
2021/09/25 02:43:52;;;;;;;7.70;6.93;;;;;;;14.17;69.63;100480.19;5004717;28;20549;-78
2021/09/25 02:46:17;;;;;;;7.45;6.75;;;;;;;14.14;69.55;100477.19;4998071;28;20439;-78
2021/09/25 02:48:43;;;;;;;10.03;7.87;;;;;;;14.09;69.95;100474.44;5007071;28;20417;-78
2021/09/25 02:51:08;;;;;;;8.23;6.97;;;;;;;14.06;69.88;100473.09;5002759;28;20466;-78
2021/09/25 02:53:33;;;;;;;7.67;7.00;;;;;;;14.02;70.18;100471.97;5011635;28;20403;-76
2021/09/25 02:55:59;;;;;;;10.97;7.30;;;;;;;13.97;69.73;100477.38;4996859;28;20742;-76
2021/09/25 02:58:24;;;;;;;8.07;6.97;;;;;;;13.92;69.70;100463.75;5012794;28;20423;-76
2021/09/25 03:00:50;;;;;;;10.83;7.20;;;;;;;13.71;69.98;100470.19;5008480;28;20408;-78
2021/09/25 03:03:15;;;;;;;7.33;6.73;;;;;;;13.54;70.38;100464.94;5011345;28;20502;-77
2021/09/25 03:05:40;;;;;;;9.83;7.60;;;;;;;13.55;70.68;100461.13;5010410;28;20954;-78
2021/09/25 03:08:06;;;;;;;9.82;7.57;;;;;;;13.61;71.04;100461.97;5011391;28;20923;-78
2021/09/25 03:10:31;;;;;;;8.43;7.67;;;;;;;13.65;70.97;100472.09;5005319;28;20395;-78
2021/09/25 03:12:56;;;;;;;11.17;8.13;;;;;;;13.69;71.06;100465.03;5001413;28;20398;-77
2021/09/25 03:15:22;;;;;;;8.70;7.90;;;;;;;13.70;71.05;100461.19;5009724;28;20396;-78
2021/09/25 03:17:47;;;;;;;7.80;7.07;;;;;;;13.70;70.94;100457.69;4993395;28;20451;-78
2021/09/25 03:20:13;;;;;;;11.43;8.27;;;;;;;13.69;71.29;100462.31;5010069;28;20412;-77
2021/09/25 03:22:39;;;;;;;18.98;14.02;;;;;;;13.72;71.18;100471.84;5005189;28;20435;-77
2021/09/25 03:25:08;;;;;;;25.90;17.30;;;;;;;13.76;71.45;100462.06;5005936;28;20415;-78
2021/09/25 03:27:35;;;;;;;33.88;20.67;;;;;;;13.78;71.36;100468.88;4998249;28;20416;-78
2021/09/25 03:30:00;;;;;;;38.20;22.40;;;;;;;13.78;71.18;100466.16;4994449;28;20417;-77
2021/09/25 03:32:25;;;;;;;32.42;20.80;;;;;;;13.78;71.28;100460.69;4995362;28;20455;-78
2021/09/25 03:34:51;;;;;;;20.93;15.20;;;;;;;13.75;71.09;100469.41;4994571;28;20432;-78
2021/09/25 03:37:16;;;;;;;15.00;10.83;;;;;;;13.71;70.55;100468.28;5002250;28;20420;-78
2021/09/25 03:39:41;;;;;;;14.57;9.93;;;;;;;13.67;70.03;100466.34;4994521;28;20420;-78
2021/09/25 03:42:07;;;;;;;12.00;8.00;;;;;;;13.64;69.50;100475.06;4994763;28;20408;-78
2021/09/25 03:44:32;;;;;;;8.45;7.57;;;;;;;13.57;69.11;100472.56;4996496;28;20419;-77
2021/09/25 03:46:58;;;;;;;12.70;7.97;;;;;;;13.50;69.65;100472.00;4995347;28;20420;-77
2021/09/25 03:49:23;;;;;;;8.70;7.45;;;;;;;13.43;69.90;100468.69;4995309;28;23739;-77
2021/09/25 03:51:48;;;;;;;9.13;7.90;;;;;;;13.31;70.43;100470.78;4994609;28;20413;-77
2021/09/25 03:54:14;;;;;;;8.47;7.57;;;;;;;13.31;70.54;100470.78;4995771;28;21488;-77
2021/09/25 03:56:39;;;;;;;10.43;7.93;;;;;;;13.32;70.13;100470.53;5003795;28;20429;-78
2021/09/25 03:59:05;;;;;;;9.63;7.43;;;;;;;13.32;70.12;100469.72;4989748;28;20413;-78
2021/09/25 04:01:30;;;;;;;9.17;7.97;;;;;;;13.30;70.00;100472.72;5007899;28;20439;-78
2021/09/25 04:03:56;;;;;;;9.67;8.67;;;;;;;13.28;69.76;100477.56;5025031;28;20411;-77
2021/09/25 04:06:23;;;;;;;9.52;8.38;;;;;;;13.27;69.78;100473.19;5014062;28;20846;-78
2021/09/25 04:08:48;;;;;;;9.40;8.23;;;;;;;13.24;70.30;100473.72;5013626;28;20425;-78
2021/09/25 04:11:14;;;;;;;8.77;7.97;;;;;;;13.22;70.19;100472.34;5012920;28;20757;-78
2021/09/25 04:13:39;;;;;;;10.13;9.03;;;;;;;13.20;70.47;100479.97;5013757;28;20958;-78
2021/09/25 04:16:04;;;;;;;12.33;11.13;;;;;;;13.20;70.20;100477.25;5018809;28;20403;-78
2021/09/25 04:18:30;;;;;;;12.87;11.57;;;;;;;13.16;70.05;100476.97;4995063;28;20417;-78
2021/09/25 04:20:55;;;;;;;24.30;13.50;;;;;;;13.12;70.30;100477.72;5014092;28;20527;-78
2021/09/25 04:23:20;;;;;;;34.50;14.00;;;;;;;13.08;70.47;100485.56;5017631;28;20760;-78
2021/09/25 04:25:46;;;;;;;31.30;14.40;;;;;;;13.04;70.11;100487.16;4994754;28;20431;-78
2021/09/25 04:28:11;;;;;;;39.50;13.80;;;;;;;12.99;70.04;100487.94;5002585;28;20420;-78
2021/09/25 04:30:38;;;;;;;35.00;13.67;;;;;;;12.97;69.82;100490.09;5009176;28;20772;-78
2021/09/25 04:33:05;;;;;;;23.97;12.43;;;;;;;12.93;70.18;100499.88;5013454;28;20991;-77
2021/09/25 04:35:30;;;;;;;22.67;12.32;;;;;;;12.85;70.87;100497.63;5006014;28;20449;-77
2021/09/25 04:37:59;;;;;;;22.30;11.43;;;;;;;12.84;71.15;100504.13;5010795;28;20542;-78
2021/09/25 04:40:24;;;;;;;19.50;10.70;;;;;;;12.86;71.48;100504.69;4999244;28;20405;-78
2021/09/25 04:42:50;;;;;;;13.27;10.97;;;;;;;12.91;70.78;100506.63;5019623;28;20406;-78
2021/09/25 04:45:16;;;;;;;16.88;10.98;;;;;;;12.90;71.06;100505.84;4996152;28;20800;-78
2021/09/25 04:47:43;;;;;;;16.73;10.75;;;;;;;12.87;71.47;100505.53;5012756;28;20436;-78
2021/09/25 04:50:10;;;;;;;20.95;11.18;;;;;;;12.84;71.41;100495.97;4994998;28;20403;-77
2021/09/25 04:52:35;;;;;;;21.03;10.53;;;;;;;12.83;71.49;100499.78;4995623;28;20741;-78
2021/09/25 04:55:01;;;;;;;22.10;10.50;;;;;;;12.82;71.73;100489.97;5012928;28;20427;-77
2021/09/25 04:57:26;;;;;;;22.60;9.88;;;;;;;12.75;72.10;100474.94;5006990;28;20920;-77
2021/09/25 04:59:51;;;;;;;13.27;9.50;;;;;;;12.67;73.03;100483.59;5012267;28;20405;-77
2021/09/25 05:02:17;;;;;;;14.57;9.20;;;;;;;12.74;73.29;100478.75;4995023;28;20489;-77
2021/09/25 05:04:42;;;;;;;17.70;8.90;;;;;;;12.83;72.43;100478.03;5013166;28;20400;-77
2021/09/25 05:07:07;;;;;;;20.83;10.07;;;;;;;12.88;71.89;100480.78;5011484;28;20409;-77
2021/09/25 05:09:33;;;;;;;20.20;9.77;;;;;;;12.90;71.62;100480.53;5012970;28;20768;-77
2021/09/25 05:11:58;;;;;;;20.33;9.07;;;;;;;12.89;72.04;100487.84;5007175;28;20456;-77
2021/09/25 05:14:23;;;;;;;15.03;7.80;;;;;;;12.88;71.77;100482.66;5012154;28;20452;-77
2021/09/25 05:16:48;;;;;;;13.77;9.07;;;;;;;12.87;71.91;100473.72;5012703;28;20401;-77
2021/09/25 05:19:14;;;;;;;12.33;7.73;;;;;;;12.88;72.09;100471.78;5010922;28;20878;-77
2021/09/25 05:21:39;;;;;;;15.17;7.73;;;;;;;12.88;72.50;100471.78;5011772;28;20419;-77
2021/09/25 05:24:06;;;;;;;16.70;7.73;;;;;;;12.89;72.61;100474.25;5009410;28;20411;-77
2021/09/25 05:26:31;;;;;;;12.82;7.45;;;;;;;12.89;72.42;100468.81;5010733;28;20412;-77
2021/09/25 05:28:57;;;;;;;12.30;7.17;;;;;;;12.89;72.15;100478.88;5011418;28;20488;-77
2021/09/25 05:31:22;;;;;;;15.43;7.20;;;;;;;12.90;72.56;100472.38;5010728;28;20884;-77
2021/09/25 05:33:47;;;;;;;12.68;7.90;;;;;;;12.91;72.20;100485.69;5011276;28;20401;-77
2021/09/25 05:36:13;;;;;;;10.17;6.83;;;;;;;12.96;71.57;100484.94;5006995;28;20447;-77
2021/09/25 05:38:38;;;;;;;25.03;9.60;;;;;;;12.96;71.20;100482.19;5015037;28;20876;-77
2021/09/25 05:41:03;;;;;;;42.03;12.90;;;;;;;12.88;70.18;100482.66;5015309;28;20408;-77
2021/09/25 05:43:29;;;;;;;48.17;12.35;;;;;;;12.80;70.17;100486.69;4985573;28;20404;-77
2021/09/25 05:45:55;;;;;;;30.93;10.40;;;;;;;12.75;70.44;100480.38;4990160;28;20464;-77
2021/09/25 05:48:20;;;;;;;23.33;10.87;;;;;;;12.73;70.24;100477.09;5012528;28;20836;-77
2021/09/25 05:50:46;;;;;;;20.23;9.37;;;;;;;12.69;70.21;100484.13;5012304;28;20486;-77
2021/09/25 05:53:11;;;;;;;15.43;10.47;;;;;;;12.63;70.16;100488.72;5010228;28;20409;-76
2021/09/25 05:55:37;;;;;;;15.97;10.83;;;;;;;12.64;70.58;100494.97;5015253;28;20483;-77
2021/09/25 05:58:03;;;;;;;15.55;9.45;;;;;;;12.70;70.83;100488.50;5007806;28;20405;-77
2021/09/25 06:00:29;;;;;;;14.33;8.77;;;;;;;12.78;71.15;100490.72;4999527;28;20471;-77
2021/09/25 06:02:57;;;;;;;8.38;7.57;;;;;;;12.82;71.26;100489.16;5008476;28;20431;-77
2021/09/25 06:05:22;;;;;;;10.75;7.65;;;;;;;12.95;70.93;100500.41;5008163;28;20819;-76
2021/09/25 06:07:48;;;;;;;10.70;8.60;;;;;;;13.06;71.06;100489.63;5003335;28;20504;-77
2021/09/25 06:10:13;;;;;;;12.53;8.47;;;;;;;13.12;70.80;100488.59;4985530;28;20452;-77
2021/09/25 06:12:38;;;;;;;9.15;7.45;;;;;;;13.20;71.02;100482.69;4999284;28;20424;-77
2021/09/25 06:15:04;;;;;;;9.67;7.60;;;;;;;13.29;71.48;100487.38;5007325;28;20437;-77
2021/09/25 06:17:29;;;;;;;12.20;9.02;;;;;;;13.31;71.21;100487.09;5003559;28;20415;-77
2021/09/25 06:19:55;;;;;;;9.98;6.95;;;;;;;13.31;71.33;100482.50;5014661;28;20419;-77
2021/09/25 06:22:20;;;;;;;13.13;7.23;;;;;;;13.41;71.72;100484.44;5018037;28;20503;-76
2021/09/25 06:24:45;;;;;;;12.73;6.70;;;;;;;13.55;71.31;100484.81;5012579;28;20405;-77
2021/09/25 06:27:11;;;;;;;10.70;7.43;;;;;;;13.64;70.87;100478.59;5012023;28;20424;-77
2021/09/25 06:29:36;;;;;;;8.87;7.20;;;;;;;13.71;70.83;100489.25;5011161;28;20408;-75
2021/09/25 06:32:01;;;;;;;10.27;6.97;;;;;;;13.80;70.90;100493.94;5016618;28;20508;-77
2021/09/25 06:34:27;;;;;;;8.53;7.70;;;;;;;13.84;71.27;100502.41;5015140;28;20411;-77
2021/09/25 06:36:53;;;;;;;8.23;7.43;;;;;;;13.74;71.78;100491.44;4995045;28;20836;-77
2021/09/25 06:39:21;;;;;;;9.52;7.22;;;;;;;13.68;72.01;100487.88;5008821;28;20495;-77
2021/09/25 06:41:46;;;;;;;7.18;6.57;;;;;;;13.68;72.28;100506.13;5003337;28;20398;-77
2021/09/25 06:44:12;;;;;;;7.70;6.90;;;;;;;13.71;72.65;100497.44;5010281;28;20760;-77
2021/09/25 06:46:37;;;;;;;8.87;7.10;;;;;;;13.75;72.82;100491.19;5014489;28;20418;-77
2021/09/25 06:49:02;;;;;;;8.55;7.45;;;;;;;13.80;73.34;100495.84;5024731;28;20444;-76
2021/09/25 06:51:28;;;;;;;13.43;8.07;;;;;;;13.80;73.15;100495.84;5008585;28;20413;-76
2021/09/25 06:53:54;;;;;;;10.95;7.68;;;;;;;13.83;73.05;100500.78;4987406;28;20404;-76
2021/09/25 06:56:20;;;;;;;10.13;8.30;;;;;;;13.85;72.94;100490.44;5008653;28;20416;-75
2021/09/25 06:58:45;;;;;;;9.73;7.40;;;;;;;13.85;72.96;100495.88;4998540;28;20512;-75
2021/09/25 07:01:11;;;;;;;10.53;7.57;;;;;;;13.89;73.13;100499.72;5019141;28;20427;-76
2021/09/25 07:03:36;;;;;;;10.10;7.37;;;;;;;13.93;72.97;100498.91;4987088;28;20426;-76
2021/09/25 07:06:01;;;;;;;10.70;8.10;;;;;;;13.95;72.84;100499.47;5009839;28;20428;-76
2021/09/25 07:08:26;;;;;;;12.32;8.25;;;;;;;13.98;73.16;100507.09;5010080;28;20413;-77
2021/09/25 07:10:52;;;;;;;10.67;7.90;;;;;;;14.03;73.52;100522.63;5016465;28;20413;-76
2021/09/25 07:13:18;;;;;;;13.03;8.23;;;;;;;14.02;73.63;100521.84;5005729;28;20416;-76
2021/09/25 07:15:43;;;;;;;17.77;8.47;;;;;;;14.00;74.10;100521.28;5006236;28;20412;-76
2021/09/25 07:18:09;;;;;;;16.35;8.93;;;;;;;14.02;74.25;100532.75;5002515;28;20423;-77
2021/09/25 07:20:34;;;;;;;23.10;8.57;;;;;;;14.09;74.59;100526.22;5005178;28;20907;-77
2021/09/25 07:22:59;;;;;;;14.97;8.47;;;;;;;14.13;74.44;100525.41;5008734;28;20491;-77
2021/09/25 07:25:27;;;;;;;13.60;7.82;;;;;;;14.13;74.42;100530.06;5010657;28;20752;-77
2021/09/25 07:27:52;;;;;;;16.30;8.93;;;;;;;14.12;75.10;100523.78;5003766;28;20788;-77
2021/09/25 07:30:18;;;;;;;15.20;8.23;;;;;;;14.21;75.04;100524.91;5011035;28;20611;-77
2021/09/25 07:32:44;;;;;;;10.00;7.33;;;;;;;14.30;74.77;100523.28;5011301;28;20435;-77
2021/09/25 07:35:11;;;;;;;12.38;7.72;;;;;;;14.36;74.60;100522.25;5014851;28;20523;-77
2021/09/25 07:37:37;;;;;;;13.53;7.93;;;;;;;14.41;74.33;100518.72;5013938;28;20823;-77
2021/09/25 07:40:04;;;;;;;17.58;7.35;;;;;;;14.48;74.53;100531.03;5014983;28;20413;-77
2021/09/25 07:42:30;;;;;;;10.77;7.40;;;;;;;14.53;74.32;100530.22;5006445;28;20409;-77
2021/09/25 07:44:56;;;;;;;13.00;8.00;;;;;;;14.57;74.73;100530.50;5013955;28;20447;-77
2021/09/25 07:47:21;;;;;;;9.60;7.60;;;;;;;14.55;74.82;100537.03;5011595;28;20466;-77
2021/09/25 07:49:46;;;;;;;14.73;8.77;;;;;;;14.57;75.27;100531.31;5013518;28;20409;-77
2021/09/25 07:52:12;;;;;;;14.90;7.80;;;;;;;14.60;75.35;100532.69;5005846;28;20414;-76
2021/09/25 07:54:37;;;;;;;10.33;8.10;;;;;;;14.61;75.46;100535.16;5012411;28;20412;-78
2021/09/25 07:57:02;;;;;;;11.37;8.03;;;;;;;14.69;75.49;100529.16;5013562;28;20404;-77
2021/09/25 07:59:28;;;;;;;12.27;7.57;;;;;;;14.75;75.47;100530.78;5011844;28;20419;-77
2021/09/25 08:01:53;;;;;;;9.63;8.47;;;;;;;14.77;75.41;100519.63;5012051;28;20416;-77
2021/09/25 08:04:18;;;;;;;11.03;8.53;;;;;;;14.81;75.70;100527.00;5014355;28;20926;-77
2021/09/25 08:06:43;;;;;;;9.50;7.93;;;;;;;14.86;75.69;100523.44;5013921;28;20498;-77
2021/09/25 08:09:09;;;;;;;9.37;8.47;;;;;;;14.89;75.59;100521.00;4998681;28;20462;-77
2021/09/25 08:11:35;;;;;;;9.67;8.33;;;;;;;14.94;75.23;100528.38;5006651;28;20525;-78
2021/09/25 08:14:00;;;;;;;9.17;8.33;;;;;;;14.98;75.44;100518.56;5009200;28;20421;-77
2021/09/25 08:16:26;;;;;;;13.17;10.27;;;;;;;15.05;76.10;100527.28;5012104;28;20915;-77
2021/09/25 08:18:51;;;;;;;12.07;9.10;;;;;;;15.12;75.91;100527.00;5016388;28;20435;-78
2021/09/25 08:21:17;;;;;;;11.70;8.77;;;;;;;15.16;75.66;100525.38;5012842;28;20440;-77
2021/09/25 08:23:43;;;;;;;10.70;8.40;;;;;;;15.22;75.83;100518.81;5010059;28;20816;-79
2021/09/25 08:26:08;;;;;;;8.95;8.10;;;;;;;15.28;75.51;100526.72;5035146;28;20416;-77
2021/09/25 08:28:34;;;;;;;8.60;7.80;;;;;;;15.34;75.69;100524.81;4998228;28;20419;-77
2021/09/25 08:30:59;;;;;;;8.50;7.70;;;;;;;15.39;75.41;100530.28;5010117;28;20770;-77
2021/09/25 08:33:24;;;;;;;9.47;8.40;;;;;;;15.48;75.21;100526.75;5013090;28;20408;-77
2021/09/25 08:35:50;;;;;;;8.73;7.97;;;;;;;15.56;75.03;100528.94;5013373;28;21223;-77
2021/09/25 08:38:15;;;;;;;8.60;7.90;;;;;;;15.60;75.44;100534.66;5011783;28;20500;-77
2021/09/25 08:40:40;;;;;;;9.00;8.10;;;;;;;15.65;75.54;100531.91;5004654;28;20412;-77
2021/09/25 08:43:06;;;;;;;10.20;8.43;;;;;;;15.68;75.05;100523.16;5012192;28;20409;-78
2021/09/25 08:45:31;;;;;;;9.50;8.30;;;;;;;15.71;74.87;100516.34;5001136;28;20749;-77
2021/09/25 08:47:57;;;;;;;8.47;7.70;;;;;;;15.74;74.76;100508.38;5013304;28;20420;-77
2021/09/25 08:50:23;;;;;;;9.07;8.13;;;;;;;15.79;74.25;100513.84;5012904;28;20455;-77
2021/09/25 08:52:49;;;;;;;8.75;7.95;;;;;;;15.86;74.66;100508.91;5011991;28;20823;-78
2021/09/25 08:55:14;;;;;;;8.37;7.53;;;;;;;15.89;74.12;100505.63;5011081;28;20409;-77
2021/09/25 08:57:40;;;;;;;8.32;7.63;;;;;;;15.92;74.03;100505.06;5013377;28;20408;-77
2021/09/25 09:00:23;;;;;;;9.20;7.33;;;;;;;16.01;73.66;100508.84;5012524;28;20463;-77
2021/09/25 09:02:49;;;;;;;8.80;7.45;;;;;;;16.09;74.19;100512.91;5000412;28;20522;-77
2021/09/25 09:05:26;;;;;;;8.35;7.55;;;;;;;16.17;73.68;100517.78;5009584;28;20582;-77
2021/09/25 09:07:52;;;;;;;7.75;7.03;;;;;;;16.27;73.73;100522.41;5012036;28;20464;-77
2021/09/25 09:10:18;;;;;;;7.82;7.13;;;;;;;16.36;73.44;100509.78;5010172;28;20498;-77
2021/09/25 09:12:44;;;;;;;8.13;7.40;;;;;;;16.46;72.85;100515.19;5003603;28;20418;-74
2021/09/25 09:15:09;;;;;;;7.97;7.20;;;;;;;16.56;72.55;100515.97;5012732;28;20405;-77
2021/09/25 09:17:35;;;;;;;7.20;6.40;;;;;;;16.67;72.42;100522.19;5012846;28;20405;-77
2021/09/25 09:20:10;;;;;;;7.57;6.38;;;;;;;16.82;72.14;100513.91;5010490;28;20416;-77
2021/09/25 09:22:35;;;;;;;7.15;6.45;;;;;;;16.94;71.26;100505.31;5008208;28;20884;-77
2021/09/25 09:25:06;;;;;;;8.37;7.57;;;;;;;17.09;71.01;100494.25;5011527;28;20501;-77
2021/09/25 09:27:32;;;;;;;9.27;6.47;;;;;;;17.25;70.67;100500.41;4995058;28;20416;-77
2021/09/25 09:30:14;;;;;;;7.30;6.65;;;;;;;17.43;70.37;100492.28;5012175;28;20413;-77
2021/09/25 09:32:47;;;;;;;7.05;6.40;;;;;;;17.61;69.85;100490.78;5011412;28;20744;-77
2021/09/25 09:35:16;;;;;;;7.95;6.68;;;;;;;17.98;67.62;100492.81;5003966;28;20906;-77
2021/09/25 09:37:45;;;;;;;7.13;6.43;;;;;;;18.21;65.91;100493.91;5002200;28;20413;-77
2021/09/25 09:40:10;;;;;;;10.23;6.40;;;;;;;18.40;65.87;100492.81;5013007;28;20455;-77
2021/09/25 09:42:41;;;;;;;8.47;6.40;;;;;;;18.98;64.73;100506.22;5005914;28;20662;-77
2021/09/25 09:45:07;;;;;;;8.02;6.35;;;;;;;19.43;63.26;100499.97;5011899;28;20405;-76
2021/09/25 09:47:43;;;;;;;8.60;6.53;;;;;;;20.01;61.38;100491.19;5012697;28;20419;-77
2021/09/25 09:50:08;;;;;;;6.77;6.00;;;;;;;20.47;59.85;100485.53;5010442;28;20421;-78
2021/09/25 09:52:33;;;;;;;6.95;6.25;;;;;;;20.80;58.77;100483.38;5011787;28;20498;-75
2021/09/25 09:54:59;;;;;;;6.77;6.13;;;;;;;21.33;57.87;100483.47;5012076;28;20419;-77
2021/09/25 09:57:24;;;;;;;7.47;6.67;;;;;;;21.81;55.75;100476.06;5012522;28;20438;-77
2021/09/25 09:59:50;;;;;;;7.33;5.93;;;;;;;22.17;54.29;100473.09;5011460;28;20454;-75
2021/09/25 10:02:18;;;;;;;6.75;6.13;;;;;;;22.45;54.07;100473.66;5010416;28;20465;-75
2021/09/25 10:04:44;;;;;;;8.43;5.95;;;;;;;22.90;53.15;100468.63;5011978;28;20392;-75
2021/09/25 10:07:10;;;;;;;7.70;5.78;;;;;;;23.25;52.19;100470.19;5010449;28;20404;-75
2021/09/25 10:09:37;;;;;;;6.10;5.60;;;;;;;23.70;50.86;100467.81;5005828;28;20390;-75
2021/09/25 10:12:17;;;;;;;6.28;5.75;;;;;;;24.13;49.52;100468.44;5000816;28;20426;-75
2021/09/25 10:14:47;;;;;;;6.13;5.35;;;;;;;24.54;48.36;100469.63;5009905;28;20910;-76
2021/09/25 10:17:14;;;;;;;6.95;6.28;;;;;;;24.89;47.06;100465.47;4992994;28;20737;-75
2021/09/25 10:19:47;;;;;;;6.00;5.47;;;;;;;25.13;47.04;100471.06;5011917;28;20523;-75
2021/09/25 10:22:21;;;;;;;5.72;5.32;;;;;;;25.27;46.27;100471.59;4980694;28;20393;-75
2021/09/25 10:24:51;;;;;;;6.47;5.60;;;;;;;25.74;46.03;100468.47;5008014;28;20403;-75
2021/09/25 10:27:17;;;;;;;6.07;5.60;;;;;;;26.15;44.21;100461.84;4982159;28;20847;-75
2021/09/25 10:29:49;;;;;;;6.40;5.55;;;;;;;26.51;43.14;100459.03;5000890;28;20489;-75
2021/09/25 10:32:22;;;;;;;6.88;5.78;;;;;;;26.81;42.57;100457.59;5010253;28;20883;-75
2021/09/25 10:35:16;;;;;;;6.85;6.15;;;;;;;27.06;41.38;100457.50;5007685;28;20391;-75
2021/09/25 10:37:55;;;;;;;10.07;7.32;;;;;;;27.16;41.14;100446.66;5004089;28;20992;-76
2021/09/25 10:40:23;;;;;;;6.90;6.22;;;;;;;27.45;40.47;100453.00;5011763;28;20478;-75
2021/09/25 10:42:55;;;;;;;6.97;6.27;;;;;;;27.34;40.29;100461.84;5011323;28;20429;-76
2021/09/25 10:45:32;;;;;;;10.67;6.07;;;;;;;27.62;40.03;100455.44;5009154;28;20416;-75
2021/09/25 10:48:15;;;;;;;5.60;5.18;;;;;;;27.64;39.95;100453.91;5012128;28;20501;-76
2021/09/25 10:50:50;;;;;;;7.70;5.20;;;;;;;27.68;40.39;100448.44;4997678;28;20722;-75
2021/09/25 10:53:24;;;;;;;5.53;4.80;;;;;;;27.60;40.16;100450.22;4999102;28;20397;-75
2021/09/25 10:56:02;;;;;;;7.47;4.88;;;;;;;27.45;40.49;100445.47;4996275;28;20441;-75
2021/09/25 10:58:38;;;;;;;6.97;4.57;;;;;;;27.80;40.16;100445.53;4986233;28;20459;-75
2021/09/25 11:01:15;;;;;;;4.85;4.40;;;;;;;27.94;39.75;100447.88;5008306;28;20409;-77
2021/09/25 11:03:41;;;;;;;5.30;4.90;;;;;;;27.87;40.00;100434.56;5007247;28;20502;-76
2021/09/25 11:06:27;;;;;;;5.05;4.63;;;;;;;27.96;39.61;100445.53;5017348;28;20420;-77
2021/09/25 11:09:02;;;;;;;5.63;4.60;;;;;;;28.09;39.52;100441.50;5017503;28;20459;-76
2021/09/25 11:11:40;;;;;;;4.60;4.20;;;;;;;28.21;39.38;100439.41;5004202;28;20977;-77
2021/09/25 11:14:12;;;;;;;7.07;5.15;;;;;;;28.46;38.73;100439.13;5002459;28;20396;-77
2021/09/25 11:16:54;;;;;;;8.00;5.43;;;;;;;28.57;37.52;100438.19;5017912;28;20396;-77
2021/09/25 11:19:22;;;;;;;5.25;4.90;;;;;;;28.93;37.23;100436.97;5017497;28;20393;-76